Time;durP1;ratioP1;P1;durP2;ratioP2;P2;SDS_P1;SDS_P2;PMS_P1;PMS_P2;Temp;Humidity;BMP_temperature;BMP_pressure;BME280_temperature;BME280_humidity;BME280_pressure;Samples;Min_cycle;Max_cycle;Signal;HPM_P1;HPM_P2
2022/03/15 00:00:32;;;;;;;59.00;30.63;;;;;;;-0.92;nan;-23789.03;4993991;28;20174;-73
2022/03/15 00:02:58;;;;;;;59.27;31.03;;;;;;;-0.95;nan;-23788.31;4994068;28;20254;-72
2022/03/15 00:05:23;;;;;;;53.27;29.97;;;;;;;-0.97;nan;-23787.72;4993447;28;20177;-72
2022/03/15 00:07:49;;;;;;;60.13;30.57;;;;;;;-1.34;nan;-23777.25;4993852;28;20260;-72
2022/03/15 00:10:15;;;;;;;52.93;29.30;;;;;;;-1.32;nan;-23777.69;4993694;28;20230;-72
2022/03/15 00:12:42;;;;;;;56.73;29.53;;;;;;;-1.03;nan;-23786.03;4993476;28;20233;-71
2022/03/15 00:15:09;;;;;;;56.60;29.50;;;;;;;-0.95;nan;-23788.31;4993593;28;20189;-71
2022/03/15 00:17:39;;;;;;;52.13;27.33;;;;;;;-1.09;nan;-23784.16;4993599;28;20176;-72
2022/03/15 00:20:07;;;;;;;55.93;28.47;;;;;;;-1.06;nan;-23785.00;4993759;28;20231;-72
2022/03/15 00:22:34;;;;;;;50.53;27.33;;;;;;;-1.01;nan;-23786.59;4993422;28;20208;-71
2022/03/15 00:25:01;;;;;;;50.13;27.70;;;;;;;-1.15;nan;-23782.56;4993193;28;20178;-72
2022/03/15 00:27:27;;;;;;;48.17;25.07;;;;;;;-1.07;nan;-23784.88;4993511;28;20606;-72
2022/03/15 00:29:53;;;;;;;54.33;26.60;;;;;;;-1.50;nan;-23772.53;4993215;28;20181;-71
2022/03/15 00:32:19;;;;;;;46.40;25.70;;;;;;;-1.07;nan;-23784.72;4993173;28;20529;-72
2022/03/15 00:34:45;;;;;;;58.13;27.43;;;;;;;-0.98;nan;-23787.44;4992569;28;20180;-70
2022/03/15 00:37:10;;;;;;;58.70;26.23;;;;;;;-1.23;nan;-23780.28;4993147;28;20612;-73
2022/03/15 00:39:35;;;;;;;47.67;27.27;;;;;;;-1.11;nan;-23783.72;4993085;28;20497;-71
2022/03/15 00:42:01;;;;;;;53.73;28.43;;;;;;;-1.07;nan;-23784.72;4991537;28;20233;-73
2022/03/15 00:44:26;;;;;;;55.30;29.57;;;;;;;-0.93;nan;-23788.88;4991631;28;20189;-75
2022/03/15 00:46:52;;;;;;;57.90;29.97;;;;;;;-0.97;nan;-23787.72;4993203;28;20205;-72
2022/03/15 00:49:18;;;;;;;66.13;30.77;;;;;;;-1.44;nan;-23774.25;4993234;28;20172;-72
2022/03/15 00:51:44;;;;;;;60.07;31.07;;;;;;;-1.07;nan;-23784.72;4993213;28;20280;-71
2022/03/15 00:54:09;;;;;;;60.57;30.70;;;;;;;-1.08;nan;-23784.59;4992810;28;20259;-72
2022/03/15 00:56:36;;;;;;;56.30;30.30;;;;;;;-0.76;nan;-23793.47;4992728;28;20173;-71
2022/03/15 00:59:01;;;;;;;65.97;32.63;;;;;;;-0.64;nan;-23797.06;4991455;28;20183;-73
2022/03/15 01:01:27;;;;;;;58.67;30.03;;;;;;;-0.76;nan;-23793.47;4992402;28;20196;-73
2022/03/15 01:03:52;;;;;;;59.67;31.30;;;;;;;-0.88;nan;-23790.03;4992091;28;20209;-72
2022/03/15 01:06:18;;;;;;;60.13;30.33;;;;;;;-0.98;nan;-23787.31;4992716;28;20539;-71
2022/03/15 01:08:43;;;;;;;59.33;31.00;;;;;;;-1.04;nan;-23785.72;4992478;28;20705;-71
2022/03/15 01:11:08;;;;;;;56.60;31.10;;;;;;;-1.11;nan;-23783.72;4991190;28;20180;-71
2022/03/15 01:13:34;;;;;;;55.80;30.00;;;;;;;-0.69;nan;-23795.63;4992929;28;20189;-72
2022/03/15 01:16:00;;;;;;;62.27;31.50;;;;;;;-0.80;nan;-23792.47;4992520;28;20187;-73
2022/03/15 01:18:25;;;;;;;55.93;29.37;;;;;;;-0.98;nan;-23787.31;4992473;28;20292;-71
2022/03/15 01:20:54;;;;;;;60.97;31.20;;;;;;;-0.64;nan;-23797.06;4992548;28;20203;-72
2022/03/15 01:23:20;;;;;;;61.23;30.93;;;;;;;-1.14;nan;-23782.72;4992575;28;20195;-72
2022/03/15 01:25:45;;;;;;;62.27;32.37;;;;;;;-1.34;nan;-23777.25;4992559;28;20569;-72
2022/03/15 01:28:11;;;;;;;62.43;31.63;;;;;;;-0.90;nan;-23789.75;4992351;28;20644;-72
2022/03/15 01:30:36;;;;;;;65.00;32.00;;;;;;;-0.96;nan;-23788.03;4990750;28;20183;-72
2022/03/15 01:33:02;;;;;;;61.97;31.30;;;;;;;-1.19;nan;-23781.44;4992260;28;20176;-72
2022/03/15 01:35:28;;;;;;;65.27;32.87;;;;;;;-1.07;nan;-23784.88;4992319;28;20180;-71
2022/03/15 01:37:53;;;;;;;67.63;33.77;;;;;;;-1.29;nan;-23778.56;4992294;28;20181;-72
2022/03/15 01:40:20;;;;;;;63.40;33.40;;;;;;;-0.98;nan;-23787.44;4991883;28;20246;-72
2022/03/15 01:42:45;;;;;;;59.50;31.40;;;;;;;-1.07;nan;-23784.88;4991934;28;20700;-72
2022/03/15 01:45:11;;;;;;;63.07;31.67;;;;;;;-1.54;nan;-23771.38;4990875;28;20197;-72
2022/03/15 01:47:36;;;;;;;61.00;31.87;;;;;;;-1.30;nan;-23778.13;4992010;28;20321;-72
2022/03/15 01:50:03;;;;;;;57.13;30.47;;;;;;;-1.25;nan;-23779.72;4991911;28;20181;-72
2022/03/15 01:52:28;;;;;;;57.67;28.77;;;;;;;-1.71;nan;-23766.50;4992083;28;20251;-73
2022/03/15 01:54:54;;;;;;;55.73;30.50;;;;;;;-1.79;nan;-23764.50;4988985;28;20267;-73
2022/03/15 01:57:19;;;;;;;51.00;27.20;;;;;;;-1.43;nan;-23774.53;4989925;28;20187;-73
2022/03/15 01:59:45;;;;;;;49.60;26.97;;;;;;;-1.33;nan;-23777.41;4971176;28;20178;-72
2022/03/15 02:02:10;;;;;;;53.60;26.80;;;;;;;-1.34;nan;-23777.13;4976250;28;20227;-72
2022/03/15 02:04:36;;;;;;;49.47;26.17;;;;;;;-1.76;nan;-23765.06;5006744;28;20676;-71
2022/03/15 02:07:06;;;;;;;47.13;24.77;;;;;;;-1.43;nan;-23774.53;4991783;28;20174;-72
2022/03/15 02:09:32;;;;;;;48.57;24.57;;;;;;;-1.66;nan;-23767.94;4991700;28;20176;-72
2022/03/15 02:11:58;;;;;;;48.53;24.30;;;;;;;-1.71;nan;-23766.66;4991456;28;20630;-72
2022/03/15 02:14:24;;;;;;;46.27;25.40;;;;;;;-1.65;nan;-23768.22;4991152;28;20262;-72
2022/03/15 02:16:50;;;;;;;49.83;25.73;;;;;;;-1.65;nan;-23768.38;4991651;28;20173;-73
2022/03/15 02:19:15;;;;;;;55.43;27.97;;;;;;;-1.87;nan;-23762.19;4991124;28;20188;-71
2022/03/15 02:21:41;;;;;;;52.83;27.03;;;;;;;-1.69;nan;-23767.22;4994807;28;20291;-72
2022/03/15 02:24:06;;;;;;;54.67;26.50;;;;;;;-1.58;nan;-23770.38;4995117;28;20176;-72
2022/03/15 02:26:32;;;;;;;58.77;27.83;;;;;;;-1.70;nan;-23766.94;4994987;28;20176;-72
2022/03/15 02:28:58;;;;;;;55.33;28.83;;;;;;;-2.22;nan;-23752.00;4993416;28;20177;-72
2022/03/15 02:31:24;;;;;;;57.10;28.43;;;;;;;-1.98;nan;-23759.03;4994965;28;20243;-71
2022/03/15 02:33:50;;;;;;;55.50;29.13;;;;;;;-1.91;nan;-23760.91;4995398;28;20177;-72
2022/03/15 02:36:16;;;;;;;56.20;29.53;;;;;;;-2.25;nan;-23751.44;4995605;28;20177;-73
2022/03/15 02:38:43;;;;;;;60.33;30.83;;;;;;;-1.84;nan;-23763.06;4995504;28;20216;-72
2022/03/15 02:41:09;;;;;;;59.33;30.73;;;;;;;-1.97;nan;-23759.31;4995466;28;20196;-73
2022/03/15 02:43:35;;;;;;;54.97;29.90;;;;;;;-2.20;nan;-23752.56;4994946;28;20664;-73
2022/03/15 02:46:00;;;;;;;56.30;28.90;;;;;;;-1.87;nan;-23762.06;4995544;28;20629;-73
2022/03/15 02:48:25;;;;;;;66.60;31.60;;;;;;;-2.48;nan;-23744.69;5010682;28;20191;-73
2022/03/15 02:50:51;;;;;;;51.47;27.97;;;;;;;-2.37;nan;-23748.00;4995609;28;20263;-72
2022/03/15 02:53:16;;;;;;;56.33;28.77;;;;;;;-1.77;nan;-23764.94;4995243;28;20177;-72
2022/03/15 02:55:43;;;;;;;51.37;26.20;;;;;;;-1.93;nan;-23760.34;4995238;28;20250;-72
2022/03/15 02:58:08;;;;;;;49.70;27.23;;;;;;;-1.84;nan;-23763.06;4994559;28;20184;-72
2022/03/15 03:00:34;;;;;;;55.50;27.97;;;;;;;-2.05;nan;-23757.03;4994878;28;20239;-72
2022/03/15 03:03:00;;;;;;;61.17;29.30;;;;;;;-1.94;nan;-23760.06;4994954;28;20181;-72
2022/03/15 03:05:26;;;;;;;55.67;30.17;;;;;;;-2.62;nan;-23740.66;4995131;28;20181;-72
2022/03/15 03:07:51;;;;;;;60.63;31.00;;;;;;;-2.05;nan;-23757.03;4994647;28;20180;-72
2022/03/15 03:10:17;;;;;;;60.67;30.20;;;;;;;-2.52;nan;-23743.53;4994541;28;20206;-71
2022/03/15 03:12:44;;;;;;;54.20;29.07;;;;;;;-2.09;nan;-23755.88;4994497;28;20176;-72
2022/03/15 03:15:12;;;;;;;65.07;31.07;;;;;;;-3.13;nan;-23726.28;4994640;28;20266;-72
2022/03/15 03:17:40;;;;;;;57.10;31.07;;;;;;;-2.67;nan;-23739.50;4994713;28;20670;-72
2022/03/15 03:20:12;;;;;;;58.10;31.43;;;;;;;-2.21;nan;-23752.44;4994542;28;20176;-72
2022/03/15 03:22:39;;;;;;;59.37;30.63;;;;;;;-2.72;nan;-23738.06;4994506;28;20250;-72
2022/03/15 03:25:06;;;;;;;59.30;31.47;;;;;;;-2.23;nan;-23751.88;4994584;28;20180;-72
2022/03/15 03:27:32;;;;;;;57.87;31.00;;;;;;;-2.82;nan;-23735.19;4994486;28;20165;-72
2022/03/15 03:29:58;;;;;;;53.30;29.60;;;;;;;-2.12;nan;-23754.88;4994190;28;20568;-72
2022/03/15 03:32:26;;;;;;;57.60;28.93;;;;;;;-1.97;nan;-23759.19;4993480;28;20616;-71
2022/03/15 03:34:53;;;;;;;58.33;29.23;;;;;;;-2.50;nan;-23744.09;4994091;28;20169;-72
2022/03/15 03:37:19;;;;;;;62.20;30.10;;;;;;;-2.55;nan;-23742.66;4994625;28;20169;-72
2022/03/15 03:39:44;;;;;;;56.43;29.37;;;;;;;-2.22;nan;-23752.28;4994080;28;20165;-73
2022/03/15 03:42:10;;;;;;;57.80;29.67;;;;;;;-2.53;nan;-23743.38;5008952;28;20243;-72
2022/03/15 03:44:36;;;;;;;54.97;29.23;;;;;;;-2.49;nan;-23744.38;4994585;28;20208;-72
2022/03/15 03:47:03;;;;;;;52.93;27.40;;;;;;;-2.68;nan;-23739.22;4994356;28;20250;-72
2022/03/15 03:49:29;;;;;;;52.70;27.30;;;;;;;-2.73;nan;-23737.66;4994105;28;20255;-75
2022/03/15 03:51:55;;;;;;;51.10;26.93;;;;;;;-2.75;nan;-23737.06;4994218;28;20280;-72
2022/03/15 03:54:20;;;;;;;54.80;25.97;;;;;;;-2.69;nan;-23738.94;4993986;28;20308;-72
2022/03/15 03:56:46;;;;;;;56.73;28.23;;;;;;;-2.62;nan;-23740.81;4994020;28;20677;-72
2022/03/15 03:59:12;;;;;;;54.93;27.77;;;;;;;-3.06;nan;-23728.31;4993967;28;20176;-72
2022/03/15 04:01:39;;;;;;;51.23;27.00;;;;;;;-2.85;nan;-23734.34;4993889;28;20596;-73
2022/03/15 04:04:05;;;;;;;52.07;25.67;;;;;;;-2.98;nan;-23730.59;4994142;28;20577;-72
2022/03/15 04:06:30;;;;;;;49.50;25.20;;;;;;;-3.06;nan;-23728.31;5008640;28;20195;-71
2022/03/15 04:08:56;;;;;;;45.33;24.23;;;;;;;-2.51;nan;-23743.97;4993565;28;20215;-72
2022/03/15 04:11:21;;;;;;;45.77;23.60;;;;;;;-2.38;nan;-23747.56;4992982;28;20185;-72
2022/03/15 04:13:47;;;;;;;49.93;24.70;;;;;;;-2.61;nan;-23740.94;4994097;28;20642;-71
2022/03/15 04:16:13;;;;;;;41.10;22.53;;;;;;;-2.53;nan;-23743.25;4996678;28;20489;-72
2022/03/15 04:18:38;;;;;;;42.63;23.93;;;;;;;-2.57;nan;-23742.09;4993705;28;20181;-72
2022/03/15 04:21:04;;;;;;;45.53;24.33;;;;;;;-2.50;nan;-23744.25;4993306;28;20199;-72
2022/03/15 04:23:30;;;;;;;46.00;22.97;;;;;;;-2.49;nan;-23744.38;4991974;28;20187;-72
2022/03/15 04:25:56;;;;;;;46.07;24.53;;;;;;;-2.78;nan;-23736.22;4992149;28;20190;-73
2022/03/15 04:28:21;;;;;;;43.47;23.50;;;;;;;-2.80;nan;-23735.78;4993450;28;20627;-74
2022/03/15 04:30:46;;;;;;;51.53;23.83;;;;;;;-2.77;nan;-23736.50;4991911;28;20189;-73
2022/03/15 04:33:12;;;;;;;40.23;22.53;;;;;;;-2.34;nan;-23748.84;4993140;28;20190;-73
2022/03/15 04:35:38;;;;;;;40.23;22.23;;;;;;;-2.70;nan;-23738.50;4993057;28;20180;-73
2022/03/15 04:38:03;;;;;;;44.07;21.97;;;;;;;-3.00;nan;-23730.03;4993184;28;20264;-72
2022/03/15 04:40:29;;;;;;;47.47;22.67;;;;;;;-2.50;nan;-23744.09;4993241;28;20242;-73
2022/03/15 04:42:54;;;;;;;40.07;23.17;;;;;;;-2.41;nan;-23746.84;4992947;28;20722;-73
2022/03/15 04:45:21;;;;;;;41.03;22.43;;;;;;;-2.91;nan;-23732.59;4993316;28;20168;-72
2022/03/15 04:47:47;;;;;;;40.57;21.57;;;;;;;-2.50;nan;-23744.25;4993115;28;20252;-73
2022/03/15 04:50:12;;;;;;;40.90;22.00;;;;;;;-2.33;nan;-23749.00;4992375;28;20193;-74
2022/03/15 04:52:39;;;;;;;42.50;23.13;;;;;;;-2.45;nan;-23745.69;4989759;28;20196;-73
2022/03/15 04:55:05;;;;;;;40.07;21.57;;;;;;;-2.08;nan;-23756.03;4992966;28;20184;-73
2022/03/15 04:57:31;;;;;;;41.83;21.80;;;;;;;-2.51;nan;-23743.97;4992536;28;20188;-73
2022/03/15 04:59:57;;;;;;;44.27;23.47;;;;;;;-2.09;nan;-23755.88;4992759;28;20168;-72
2022/03/15 05:02:23;;;;;;;43.33;22.40;;;;;;;-2.28;nan;-23750.44;4992497;28;20698;-73
2022/03/15 05:04:49;;;;;;;42.63;22.13;;;;;;;-1.75;nan;-23765.50;4992318;28;20176;-73
2022/03/15 05:07:16;;;;;;;38.57;21.90;;;;;;;-2.17;nan;-23753.44;4992517;28;20601;-73
2022/03/15 05:11:06;;;;;;;41.77;22.10;;;;;;;-1.66;nan;-23767.94;4992782;28;20192;-73
2022/03/15 05:12:36;;;;;;;40.70;21.63;;;;;;;-1.27;nan;-23779.13;4991385;28;20212;-73
2022/03/15 05:15:05;;;;;;;38.20;21.37;;;;;;;-1.16;nan;-23782.28;4991529;28;20181;-72
2022/03/15 05:17:31;;;;;;;40.83;21.73;;;;;;;-0.98;nan;-23787.44;4989519;28;20185;-71
2022/03/15 05:19:56;;;;;;;42.93;22.00;;;;;;;-0.98;nan;-23787.44;4990938;28;20196;-72
2022/03/15 05:22:22;;;;;;;36.37;20.77;;;;;;;-0.99;nan;-23787.16;4991254;28;20227;-72
2022/03/15 05:24:47;;;;;;;37.87;21.33;;;;;;;-0.70;nan;-23795.34;4991367;28;20213;-73
2022/03/15 05:27:12;;;;;;;35.53;20.03;;;;;;;-0.96;nan;-23787.88;4991672;28;20232;-74
2022/03/15 05:29:38;;;;;;;40.90;21.60;;;;;;;-0.96;nan;-23788.03;4983966;28;20186;-72
2022/03/15 05:32:04;;;;;;;38.30;20.77;;;;;;;-0.39;nan;-23803.94;4971146;28;20615;-72
2022/03/15 05:34:29;;;;;;;34.83;20.57;;;;;;;-0.64;nan;-23796.91;4972165;28;20181;-73
2022/03/15 05:36:55;;;;;;;40.73;21.40;;;;;;;-0.64;nan;-23796.91;4972101;28;20184;-73
2022/03/15 05:39:20;;;;;;;41.07;21.67;;;;;;;-0.20;nan;-23809.53;4982530;28;20198;-72
2022/03/15 05:41:46;;;;;;;40.80;21.57;;;;;;;-0.03;nan;-23814.38;4988775;28;20641;-71
2022/03/15 05:44:12;;;;;;;36.37;21.87;;;;;;;-0.27;nan;-23807.38;4991029;28;20172;-72
2022/03/15 05:46:38;;;;;;;44.57;23.43;;;;;;;-0.29;nan;-23806.94;4991547;28;20180;-71
2022/03/15 05:49:04;;;;;;;47.50;22.43;;;;;;;-0.20;nan;-23809.53;4991173;28;20675;-72
2022/03/15 05:51:29;;;;;;;44.53;21.97;;;;;;;0.31;nan;-23824.00;4986828;28;20213;-71
2022/03/15 05:53:55;;;;;;;36.73;21.90;;;;;;;0.46;nan;-23828.00;4985975;28;20194;-72
2022/03/15 05:56:20;;;;;;;41.43;22.33;;;;;;;0.50;nan;-23829.28;4992995;28;20277;-73
2022/03/15 05:58:47;;;;;;;41.23;21.57;;;;;;;-0.08;nan;-23812.97;4992102;28;20737;-74
2022/03/15 06:01:12;;;;;;;40.37;22.70;;;;;;;0.06;nan;-23816.69;4992426;28;20205;-73
2022/03/15 06:03:38;;;;;;;42.53;22.03;;;;;;;0.04;nan;-23816.25;4994025;28;20242;-73
2022/03/15 06:06:03;;;;;;;43.20;21.70;;;;;;;0.32;nan;-23824.28;4993761;28;20562;-73
2022/03/15 06:08:29;;;;;;;43.47;23.70;;;;;;;0.26;nan;-23822.41;4995721;28;20662;-74
2022/03/15 06:10:57;;;;;;;38.90;21.43;;;;;;;0.13;nan;-23818.69;4994486;28;20582;-72
2022/03/15 06:13:23;;;;;;;39.23;21.07;;;;;;;0.24;nan;-23821.97;4990699;28;20248;-72
2022/03/15 06:15:48;;;;;;;38.43;21.73;;;;;;;0.21;nan;-23821.13;4993956;28;20192;-73
2022/03/15 06:18:14;;;;;;;39.97;21.87;;;;;;;0.68;nan;-23834.28;4995303;28;20188;-74
2022/03/15 06:20:39;;;;;;;40.07;19.67;;;;;;;0.69;nan;-23834.56;4995357;28;20177;-72
2022/03/15 06:23:05;;;;;;;34.43;20.83;;;;;;;0.71;nan;-23835.28;4995262;28;20606;-73
2022/03/15 06:25:32;;;;;;;35.10;19.23;;;;;;;1.46;nan;-23856.31;4995072;28;20718;-72
2022/03/15 06:27:57;;;;;;;36.03;20.20;;;;;;;1.41;nan;-23854.88;4993726;28;20238;-73
2022/03/15 06:30:24;;;;;;;34.87;19.23;;;;;;;1.56;nan;-23859.16;4993790;28;20185;-72
2022/03/15 06:32:49;;;;;;;31.60;17.67;;;;;;;1.36;nan;-23853.44;4992962;28;20189;-72
2022/03/15 06:35:15;;;;;;;30.20;18.80;;;;;;;2.08;nan;-23873.88;4994846;28;20186;-72
2022/03/15 06:37:45;;;;;;;31.53;17.73;;;;;;;2.04;nan;-23872.75;4994853;28;20185;-73
2022/03/15 06:40:12;;;;;;;33.53;18.40;;;;;;;2.36;nan;-23881.88;4993370;28;20272;-72
2022/03/15 06:42:38;;;;;;;31.40;17.53;;;;;;;2.42;nan;-23883.59;4994593;28;20249;-72
2022/03/15 06:45:06;;;;;;;28.53;16.30;;;;;;;2.37;nan;-23882.16;4994383;28;20183;-71
2022/03/15 06:47:31;;;;;;;29.13;16.23;;;;;;;2.92;nan;-23897.72;4994076;28;20585;-72
2022/03/15 06:49:57;;;;;;;29.30;15.93;;;;;;;2.83;nan;-23895.16;4994601;28;20180;-72
2022/03/15 06:52:23;;;;;;;30.17;17.00;;;;;;;2.54;nan;-23886.88;4994540;28;20555;-72
2022/03/15 06:54:48;;;;;;;28.37;17.13;;;;;;;3.00;nan;-23900.00;4994147;28;20261;-71
2022/03/15 06:57:14;;;;;;;28.50;16.20;;;;;;;3.10;nan;-23902.84;4993762;28;20196;-72
2022/03/15 06:59:40;;;;;;;30.97;16.90;;;;;;;3.01;nan;-23900.16;4994258;28;20188;-72
2022/03/15 07:02:06;;;;;;;30.10;16.50;;;;;;;2.85;nan;-23895.59;4992309;28;20580;-74
2022/03/15 07:04:31;;;;;;;33.57;17.60;;;;;;;3.05;nan;-23901.28;4994176;28;20184;-74
2022/03/15 07:06:56;;;;;;;28.37;16.53;;;;;;;3.00;nan;-23900.00;4994025;28;20183;-72
2022/03/15 07:09:22;;;;;;;30.83;15.87;;;;;;;3.76;nan;-23921.25;4994439;28;20703;-71
2022/03/15 07:11:47;;;;;;;29.20;15.60;;;;;;;3.53;nan;-23914.97;4994369;28;20868;-73
2022/03/15 07:14:13;;;;;;;25.10;14.33;;;;;;;3.72;nan;-23920.25;4994308;28;20176;-73
2022/03/15 07:16:38;;;;;;;25.80;14.90;;;;;;;4.31;nan;-23936.78;4994256;28;20204;-73
2022/03/15 07:19:04;;;;;;;23.03;14.57;;;;;;;4.32;nan;-23937.06;4994455;28;20187;-71
2022/03/15 07:21:30;;;;;;;21.87;13.50;;;;;;;4.16;nan;-23932.50;4993943;28;20215;-73
2022/03/15 07:23:57;;;;;;;25.27;14.47;;;;;;;4.27;nan;-23935.78;4994455;28;20235;-72
2022/03/15 07:26:22;;;;;;;25.03;14.80;;;;;;;4.45;nan;-23940.75;4994220;28;20179;-72
2022/03/15 07:28:48;;;;;;;28.57;14.63;;;;;;;4.37;nan;-23938.63;4992343;28;20193;-71
2022/03/15 07:31:14;;;;;;;22.53;13.97;;;;;;;4.72;nan;-23948.44;4992314;28;20199;-74
2022/03/15 07:33:39;;;;;;;26.23;14.73;;;;;;;4.61;nan;-23945.31;4993540;28;20279;-74
2022/03/15 07:36:04;;;;;;;25.17;15.23;;;;;;;4.88;nan;-23953.00;4994160;28;20710;-73
2022/03/15 07:38:32;;;;;;;22.33;14.67;;;;;;;5.10;nan;-23958.97;4993471;28;20231;-73
2022/03/15 07:40:59;;;;;;;28.63;15.97;;;;;;;5.59;nan;-23972.75;4993596;28;20172;-73
2022/03/15 07:43:25;;;;;;;23.93;14.57;;;;;;;6.04;nan;-23985.41;4993330;28;20220;-73
2022/03/15 07:45:50;;;;;;;24.73;14.10;;;;;;;5.97;nan;-23983.56;4993400;28;20184;-74
2022/03/15 07:48:17;;;;;;;24.47;14.77;;;;;;;6.10;nan;-23987.13;4993659;28;20632;-72
2022/03/15 07:50:43;;;;;;;23.87;14.33;;;;;;;6.05;nan;-23985.84;4992100;28;20648;-71
2022/03/15 07:53:08;;;;;;;28.03;14.27;;;;;;;6.36;nan;-23994.50;4993142;28;20177;-72
2022/03/15 07:55:34;;;;;;;28.53;15.73;;;;;;;6.37;nan;-23994.78;4992242;28;20624;-72
2022/03/15 07:58:00;;;;;;;28.97;16.40;;;;;;;5.64;nan;-23974.19;4991265;28;20173;-71
2022/03/15 08:00:26;;;;;;;22.47;13.70;;;;;;;6.37;nan;-23994.78;4993226;28;20357;-71
2022/03/15 08:02:52;;;;;;;21.97;13.77;;;;;;;6.55;nan;-23999.75;4993166;28;20222;-71
2022/03/15 08:05:18;;;;;;;22.53;13.33;;;;;;;6.67;nan;-24003.16;4993089;28;20176;-72
2022/03/15 08:07:43;;;;;;;17.77;11.73;;;;;;;6.99;nan;-24012.25;4993163;28;20181;-72
2022/03/15 08:10:10;;;;;;;23.77;13.40;;;;;;;7.34;nan;-24022.03;4993017;28;20251;-71
2022/03/15 08:12:37;;;;;;;21.70;12.53;;;;;;;6.83;nan;-24007.69;4993418;28;20187;-72
2022/03/15 08:15:04;;;;;;;22.57;13.60;;;;;;;6.85;nan;-24008.25;4993045;28;20184;-72
2022/03/15 08:17:29;;;;;;;18.23;11.63;;;;;;;6.52;nan;-23998.91;4992842;28;20204;-72
2022/03/15 08:19:57;;;;;;;22.17;13.40;;;;;;;6.16;nan;-23988.81;4992967;28;20259;-71
2022/03/15 08:22:23;;;;;;;23.97;12.30;;;;;;;7.14;nan;-24016.22;4993265;28;20196;-72
2022/03/15 08:24:48;;;;;;;19.07;10.83;;;;;;;7.08;nan;-24014.78;4992619;28;20215;-72
2022/03/15 08:27:13;;;;;;;20.70;10.37;;;;;;;6.57;nan;-24000.47;4992380;28;20204;-71
2022/03/15 08:29:39;;;;;;;20.37;10.43;;;;;;;6.82;nan;-24007.28;4992781;28;20181;-71
2022/03/15 08:32:06;;;;;;;19.60;10.97;;;;;;;7.16;nan;-24016.78;4993121;28;20227;-72
2022/03/15 08:34:32;;;;;;;17.13;10.53;;;;;;;7.78;nan;-24034.22;4993078;28;20632;-72
2022/03/15 08:36:58;;;;;;;18.70;10.70;;;;;;;7.69;nan;-24031.81;4992836;28;20165;-71
2022/03/15 08:39:24;;;;;;;16.07;10.23;;;;;;;8.29;nan;-24048.66;4992584;28;20243;-71
2022/03/15 08:41:51;;;;;;;17.13;11.47;;;;;;;8.22;nan;-24046.53;4992471;28;20286;-71
2022/03/15 08:44:18;;;;;;;16.83;11.93;;;;;;;7.57;nan;-24028.25;4992181;28;20187;-70
2022/03/15 08:46:47;;;;;;;22.70;10.80;;;;;;;8.11;nan;-24043.41;4992589;28;20176;-71
2022/03/15 08:49:12;;;;;;;20.07;11.90;;;;;;;8.24;nan;-24047.09;4992582;28;20205;-70
2022/03/15 08:51:38;;;;;;;18.30;11.13;;;;;;;7.82;nan;-24035.34;4992426;28;20642;-71
2022/03/15 08:54:03;;;;;;;19.47;12.13;;;;;;;7.70;nan;-24031.94;4992037;28;20235;-70
2022/03/15 08:56:29;;;;;;;17.83;11.50;;;;;;;7.90;nan;-24037.75;4991510;28;20636;-71
2022/03/15 08:58:54;;;;;;;19.10;11.23;;;;;;;8.07;nan;-24042.28;4992470;28;20176;-72
2022/03/15 09:01:19;;;;;;;18.57;11.17;;;;;;;8.75;nan;-24061.41;4992401;28;20208;-71
2022/03/15 09:03:45;;;;;;;21.30;10.83;;;;;;;9.00;nan;-24068.47;4992899;28;20188;-71
2022/03/15 09:06:10;;;;;;;17.73;11.17;;;;;;;9.04;nan;-24069.47;4992540;28;20327;-72
2022/03/15 09:08:36;;;;;;;18.80;11.50;;;;;;;9.36;nan;-24078.38;4992432;28;20188;-72
2022/03/15 09:11:03;;;;;;;17.57;11.57;;;;;;;9.22;nan;-24074.69;4992032;28;20181;-72
2022/03/15 09:13:29;;;;;;;17.33;11.47;;;;;;;9.67;nan;-24087.28;4992676;28;20157;-72
2022/03/15 09:15:54;;;;;;;19.80;10.97;;;;;;;9.49;nan;-24082.19;4992151;28;20173;-71
2022/03/15 09:18:20;;;;;;;17.77;11.40;;;;;;;9.60;nan;-24085.16;4992403;28;20232;-72
2022/03/15 09:20:46;;;;;;;16.30;11.20;;;;;;;9.60;nan;-24085.16;4992129;28;20656;-72
2022/03/15 09:23:12;;;;;;;19.10;11.23;;;;;;;9.38;nan;-24078.94;4991756;28;20173;-72
2022/03/15 09:25:37;;;;;;;18.63;11.00;;;;;;;10.13;nan;-24099.97;4991738;28;20255;-72
2022/03/15 09:28:04;;;;;;;15.00;11.23;;;;;;;10.01;nan;-24096.59;4992125;28;20276;-72
2022/03/15 09:30:32;;;;;;;17.27;10.88;;;;;;;10.24;nan;-24103.09;4990642;28;20191;-72
2022/03/15 09:32:59;;;;;;;14.27;10.57;;;;;;;10.72;nan;-24116.34;4990695;28;20238;-72
2022/03/15 09:35:25;;;;;;;17.15;10.52;;;;;;;10.57;nan;-24112.41;4991090;28;20180;-71
2022/03/15 09:37:51;;;;;;;15.85;10.98;;;;;;;10.65;nan;-24114.53;4989769;28;20202;-72
2022/03/15 09:40:21;;;;;;;16.25;10.77;;;;;;;10.55;nan;-24111.69;4989569;28;20284;-72
2022/03/15 09:42:49;;;;;;;16.48;10.85;;;;;;;10.51;nan;-24110.72;4991038;28;20667;-71
2022/03/15 09:45:20;;;;;;;18.35;10.60;;;;;;;10.65;nan;-24114.53;4990794;28;20184;-70
2022/03/15 09:47:51;;;;;;;17.13;10.82;;;;;;;10.39;nan;-24107.31;4993029;28;20308;-71
2022/03/15 09:50:18;;;;;;;18.33;10.90;;;;;;;10.68;nan;-24115.38;4990207;28;20265;-72
2022/03/15 09:52:44;;;;;;;16.70;10.20;;;;;;;10.91;nan;-24121.84;4984500;28;20660;-72
2022/03/15 09:55:11;;;;;;;19.50;11.30;;;;;;;10.90;nan;-24121.44;4991744;28;20279;-72
2022/03/15 09:57:38;;;;;;;17.88;10.98;;;;;;;10.90;nan;-24121.44;4990146;28;20251;-71
2022/03/15 10:00:04;;;;;;;14.75;10.68;;;;;;;10.85;nan;-24120.03;4991402;28;20185;-71
2022/03/15 10:02:31;;;;;;;15.77;10.32;;;;;;;10.80;nan;-24118.63;4991226;28;20208;-71
2022/03/15 10:04:56;;;;;;;16.52;11.05;;;;;;;10.86;nan;-24120.31;4991248;28;20675;-70
2022/03/15 10:07:22;;;;;;;18.25;10.07;;;;;;;10.59;nan;-24112.97;4989119;28;20180;-71
2022/03/15 10:09:48;;;;;;;18.67;10.45;;;;;;;11.03;nan;-24125.25;4991529;28;20179;-71
2022/03/15 10:12:13;;;;;;;18.13;10.85;;;;;;;11.16;nan;-24128.75;4991678;28;20184;-71
2022/03/15 10:14:46;;;;;;;19.42;10.77;;;;;;;10.79;nan;-24118.47;4989918;28;20177;-71
2022/03/15 10:17:14;;;;;;;17.73;11.10;;;;;;;10.80;nan;-24118.63;4988923;28;20200;-71
2022/03/15 10:19:58;;;;;;;19.60;11.48;;;;;;;10.71;nan;-24116.06;4989472;28;20177;-71
2022/03/15 10:22:25;;;;;;;15.95;10.65;;;;;;;10.78;nan;-24118.19;4989385;28;20296;-71
2022/03/15 10:24:52;;;;;;;16.60;10.30;;;;;;;11.33;nan;-24133.56;4986237;28;20263;-72
2022/03/15 10:27:18;;;;;;;16.55;9.52;;;;;;;11.52;nan;-24138.78;4991311;28;20184;-73
2022/03/15 10:29:46;;;;;;;14.15;9.40;;;;;;;11.72;nan;-24144.25;4991043;28;20664;-72
2022/03/15 10:32:13;;;;;;;16.08;9.30;;;;;;;11.86;nan;-24148.22;4989100;28;20193;-72
2022/03/15 10:34:39;;;;;;;17.88;9.35;;;;;;;11.70;nan;-24143.69;4989814;28;20173;-72
2022/03/15 10:37:04;;;;;;;13.57;9.25;;;;;;;11.86;nan;-24148.22;4988283;28;20201;-70
2022/03/15 10:39:30;;;;;;;18.08;10.05;;;;;;;12.33;nan;-24161.31;4989630;28;20180;-70
2022/03/15 10:42:02;;;;;;;13.52;8.07;;;;;;;12.14;nan;-24155.97;4991691;28;20224;-71
2022/03/15 10:44:30;;;;;;;11.85;8.30;;;;;;;12.53;nan;-24166.94;4994389;28;20304;-71
2022/03/15 10:47:04;;;;;;;14.80;9.27;;;;;;;12.49;nan;-24165.81;4985145;28;20726;-70
2022/03/15 10:49:30;;;;;;;17.25;9.40;;;;;;;12.59;nan;-24168.47;4994136;28;20653;-71
2022/03/15 10:51:57;;;;;;;12.00;8.38;;;;;;;12.81;nan;-24174.66;4993459;28;20189;-70
2022/03/15 10:54:27;;;;;;;14.90;8.77;;;;;;;12.83;nan;-24175.38;4994198;28;20181;-71
2022/03/15 10:56:55;;;;;;;12.57;8.57;;;;;;;13.08;nan;-24182.13;4990139;28;20188;-71
2022/03/15 10:59:22;;;;;;;11.95;8.82;;;;;;;12.93;nan;-24177.91;4993697;28;20605;-71
2022/03/15 11:01:48;;;;;;;14.80;9.02;;;;;;;12.43;nan;-24164.13;4991931;28;20671;-70
2022/03/15 11:04:15;;;;;;;12.68;8.57;;;;;;;12.35;nan;-24162.00;4988171;28;20191;-71
2022/03/15 11:06:50;;;;;;;15.85;7.63;;;;;;;12.48;nan;-24165.38;4987542;28;20185;-70
2022/03/15 11:09:18;;;;;;;13.77;7.55;;;;;;;12.50;nan;-24165.94;4990325;28;20618;-72
2022/03/15 11:12:06;;;;;;;10.82;7.35;;;;;;;11.62;nan;-24141.44;4985945;28;20180;-72
2022/03/15 11:14:46;;;;;;;10.55;7.82;;;;;;;12.92;nan;-24177.63;4989700;28;20189;-74
2022/03/15 11:17:21;;;;;;;16.42;7.57;;;;;;;12.72;nan;-24172.13;4987034;28;20254;-70
2022/03/15 11:19:56;;;;;;;12.75;7.47;;;;;;;13.30;nan;-24188.16;4989331;28;20203;-70
2022/03/15 11:22:31;;;;;;;10.40;6.97;;;;;;;13.71;nan;-24199.69;4985289;28;20199;-70
2022/03/15 11:25:17;;;;;;;10.98;7.38;;;;;;;13.75;nan;-24200.81;4986977;28;20195;-70